Time;durP1;ratioP1;P1;durP2;ratioP2;P2;SDS_P1;SDS_P2;PMS_P1;PMS_P2;Temp;Humidity;BMP_temperature;BMP_pressure;BME280_temperature;BME280_humidity;BME280_pressure;Samples;Min_cycle;Max_cycle;Signal;HPM_P1;HPM_P2
2022/08/30 00:01:01;;;;;;;5.37;2.90;;;17.00;99.90;;;;;;5016240;28;20203;-69
2022/08/30 00:01:58;;;;;;;4.47;2.27;;;17.00;99.90;;;;;;5021579;28;20218;-69
2022/08/30 00:04:25;;;;;;;4.77;2.97;;;17.00;99.90;;;;;;5015739;28;20590;-69
2022/08/30 00:06:52;;;;;;;5.30;2.70;;;17.10;99.90;;;;;;5017131;28;20587;-68
2022/08/30 00:09:19;;;;;;;6.33;2.47;;;17.10;99.90;;;;;;5016374;28;20556;-70
2022/08/30 00:11:45;;;;;;;4.90;2.80;;;17.10;99.90;;;;;;5022018;28;20208;-69
2022/08/30 00:14:12;;;;;;;4.40;2.57;;;17.10;99.90;;;;;;5012905;28;20195;-70
2022/08/30 00:16:39;;;;;;;4.93;2.83;;;17.00;99.90;;;;;;5013709;28;20199;-69
2022/08/30 00:19:05;;;;;;;3.97;2.20;;;16.90;99.90;;;;;;5019361;28;20226;-69
2022/08/30 00:21:32;;;;;;;3.83;2.33;;;16.70;99.90;;;;;;5022690;28;20228;-69
2022/08/30 00:23:59;;;;;;;5.90;2.80;;;16.50;99.90;;;;;;5017436;28;20215;-69
2022/08/30 00:26:26;;;;;;;3.63;2.27;;;16.30;99.90;;;;;;5020020;28;20296;-69
2022/08/30 00:28:52;;;;;;;3.77;2.37;;;16.30;99.90;;;;;;5021882;28;20187;-69
2022/08/30 00:31:19;;;;;;;5.03;2.43;;;16.30;99.90;;;;;;5018648;28;20211;-70
2022/08/30 00:33:45;;;;;;;5.90;2.23;;;16.30;99.90;;;;;;5014793;28;20203;-70
2022/08/30 00:36:12;;;;;;;3.03;2.00;;;16.40;99.90;;;;;;5013904;28;20207;-69
2022/08/30 00:38:39;;;;;;;5.03;2.10;;;16.40;99.90;;;;;;5012289;28;20204;-68
2022/08/30 00:41:06;;;;;;;6.20;2.40;;;16.30;99.90;;;;;;5016682;28;20196;-68
2022/08/30 00:43:34;;;;;;;3.87;2.40;;;16.20;99.90;;;;;;5016859;28;20222;-69
2022/08/30 00:46:06;;;;;;;4.80;2.40;;;16.10;99.90;;;;;;5018455;28;20224;-69
2022/08/30 00:48:37;;;;;;;3.20;2.00;;;16.10;99.90;;;;;;5016881;28;20251;-70
2022/08/30 00:51:09;;;;;;;5.27;2.40;;;16.00;99.90;;;;;;5016454;28;20219;-69
2022/08/30 00:53:39;;;;;;;3.33;2.07;;;16.00;99.90;;;;;;5023218;28;20203;-70
2022/08/30 00:56:06;;;;;;;5.07;2.07;;;16.20;99.90;;;;;;5012496;28;20215;-69
2022/08/30 00:58:36;;;;;;;3.97;2.30;;;16.20;99.90;;;;;;5014370;28;20200;-69
2022/08/30 01:01:04;;;;;;;3.77;2.30;;;16.20;99.90;;;;;;5016127;28;20720;-69
2022/08/30 01:03:34;;;;;;;5.20;2.17;;;16.20;99.90;;;;;;5018033;28;20220;-69
2022/08/30 01:06:02;;;;;;;3.23;2.03;;;16.10;99.90;;;;;;5015694;28;20219;-69
2022/08/30 01:08:29;;;;;;;4.63;2.10;;;16.10;99.90;;;;;;5009042;28;20201;-69
2022/08/30 01:10:56;;;;;;;2.70;1.90;;;16.10;99.90;;;;;;5022939;28;20211;-69
2022/08/30 01:13:24;;;;;;;3.30;2.10;;;16.00;99.90;;;;;;5021979;28;20230;-70
2022/08/30 01:15:52;;;;;;;4.57;2.43;;;16.00;99.90;;;;;;5018751;28;20322;-70
2022/08/30 01:18:22;;;;;;;4.47;2.20;;;15.90;99.90;;;;;;5021331;28;20203;-70
2022/08/30 01:21:05;;;;;;;4.83;2.17;;;15.80;99.90;;;;;;5014812;28;20679;-69
2022/08/30 01:23:35;;;;;;;4.37;1.93;;;15.80;99.90;;;;;;5014531;28;20220;-70
2022/08/30 01:26:05;;;;;;;3.20;1.90;;;15.70;99.90;;;;;;5011774;28;20215;-69
2022/08/30 01:28:32;;;;;;;3.93;2.40;;;15.80;99.90;;;;;;5016348;28;20206;-69
2022/08/30 01:31:00;;;;;;;4.40;2.00;;;15.90;99.90;;;;;;5019395;28;20188;-68
2022/08/30 01:33:27;;;;;;;4.87;1.90;;;15.80;99.90;;;;;;5020895;28;20199;-68
2022/08/30 01:35:55;;;;;;;3.47;2.27;;;15.80;99.90;;;;;;5014813;28;20219;-69
2022/08/30 01:38:35;;;;;;;3.20;2.20;;;15.80;99.90;;;;;;5017004;28;20207;-69
2022/08/30 01:41:14;;;;;;;4.33;2.03;;;15.70;99.90;;;;;;5019323;28;20220;-70
2022/08/30 01:43:42;;;;;;;3.20;1.77;;;15.70;99.90;;;;;;5017937;28;20223;-69
2022/08/30 01:46:10;;;;;;;2.90;1.80;;;15.70;99.90;;;;;;5017060;28;20696;-70
2022/08/30 01:48:39;;;;;;;3.30;2.10;;;15.70;99.90;;;;;;5019847;28;20195;-70
2022/08/30 01:51:10;;;;;;;3.77;2.20;;;15.70;99.90;;;;;;5017803;28;20204;-70
2022/08/30 01:53:39;;;;;;;3.40;2.07;;;15.60;99.90;;;;;;5025551;28;20199;-69
2022/08/30 01:56:06;;;;;;;5.83;2.63;;;15.60;99.90;;;;;;5023634;28;20199;-70
2022/08/30 01:58:35;;;;;;;3.60;2.20;;;15.80;99.90;;;;;;5022191;28;20199;-69
2022/08/30 02:01:05;;;;;;;4.17;2.03;;;15.90;99.90;;;;;;5024735;28;20250;-69
2022/08/30 02:03:34;;;;;;;4.63;2.23;;;16.10;99.90;;;;;;5021879;28;20234;-70
2022/08/30 02:06:07;;;;;;;3.73;2.10;;;16.10;99.90;;;;;;5020933;28;20625;-69
2022/08/30 02:08:34;;;;;;;4.80;1.93;;;16.00;99.90;;;;;;5017208;28;20214;-70
2022/08/30 02:11:02;;;;;;;5.07;2.07;;;15.90;99.90;;;;;;5025892;28;20200;-70
2022/08/30 02:13:29;;;;;;;4.47;2.20;;;16.00;99.90;;;;;;5019701;28;20688;-68
2022/08/30 02:15:56;;;;;;;3.27;2.33;;;16.00;99.90;;;;;;5021427;28;20219;-68
2022/08/30 02:18:25;;;;;;;3.43;2.13;;;16.10;99.90;;;;;;5019725;28;20627;-68
2022/08/30 02:20:52;;;;;;;4.30;2.30;;;16.10;99.90;;;;;;5022692;28;20215;-68
2022/08/30 02:23:18;;;;;;;3.50;2.27;;;16.00;99.90;;;;;;5017547;28;20238;-70
2022/08/30 02:25:45;;;;;;;4.37;2.43;;;16.00;99.90;;;;;;5021144;28;20614;-70
2022/08/30 02:28:14;;;;;;;5.87;2.20;;;16.00;99.90;;;;;;5025470;28;20645;-70
2022/08/30 02:30:44;;;;;;;3.73;2.30;;;15.90;99.90;;;;;;5026255;28;20199;-68
2022/08/30 02:33:11;;;;;;;2.87;2.00;;;15.70;99.90;;;;;;5017583;28;20700;-68
2022/08/30 02:35:38;;;;;;;4.00;2.30;;;15.50;99.90;;;;;;5022839;28;20680;-70
2022/08/30 02:38:05;;;;;;;3.93;2.30;;;15.40;99.90;;;;;;5015803;28;20206;-70
2022/08/30 02:40:32;;;;;;;4.23;2.10;;;15.30;99.90;;;;;;5022063;28;20210;-70
2022/08/30 02:42:59;;;;;;;4.17;2.23;;;15.30;99.90;;;;;;5020673;28;20355;-70
2022/08/30 02:45:26;;;;;;;3.77;2.40;;;15.20;99.90;;;;;;5017249;28;20204;-68
2022/08/30 02:47:55;;;;;;;3.27;2.10;;;15.20;99.90;;;;;;5016236;28;20201;-68
2022/08/30 02:50:23;;;;;;;5.93;2.63;;;15.20;99.90;;;;;;5009128;28;20552;-68
2022/08/30 02:52:50;;;;;;;4.03;2.13;;;15.20;99.90;;;;;;5016782;28;20220;-68
2022/08/30 02:55:19;;;;;;;5.10;2.20;;;15.20;99.90;;;;;;5016740;28;20269;-70
2022/08/30 02:57:46;;;;;;;5.23;2.43;;;15.40;99.90;;;;;;5010008;28;20208;-70
2022/08/30 03:00:16;;;;;;;6.13;2.50;;;15.50;99.90;;;;;;5019833;28;20805;-70
2022/08/30 03:02:42;;;;;;;2.87;2.07;;;15.50;99.90;;;;;;5010318;28;20236;-70
2022/08/30 03:05:11;;;;;;;3.57;1.97;;;15.50;99.90;;;;;;5015657;28;20583;-70
2022/08/30 03:07:39;;;;;;;4.13;1.90;;;15.40;99.90;;;;;;5013339;28;20207;-70
2022/08/30 03:10:07;;;;;;;3.27;1.80;;;15.20;99.90;;;;;;5014144;28;20191;-70
2022/08/30 03:12:34;;;;;;;2.53;1.90;;;15.10;99.90;;;;;;5016791;28;20227;-71
2022/08/30 03:15:04;;;;;;;4.30;2.07;;;15.00;99.90;;;;;;5018246;28;20200;-70
2022/08/30 03:17:31;;;;;;;2.83;2.07;;;15.10;99.90;;;;;;5009880;28;20691;-70
2022/08/30 03:20:00;;;;;;;2.70;1.90;;;15.10;99.90;;;;;;5016999;28;20192;-70
2022/08/30 03:22:28;;;;;;;4.27;2.27;;;15.00;99.90;;;;;;5017170;28;20770;-70
2022/08/30 03:24:58;;;;;;;4.33;2.20;;;15.00;99.90;;;;;;5010740;28;20227;-70
2022/08/30 03:27:26;;;;;;;3.97;2.20;;;14.90;99.90;;;;;;5020284;28;20664;-71
2022/08/30 03:29:53;;;;;;;3.90;2.03;;;14.90;99.90;;;;;;5020778;28;20194;-69
2022/08/30 03:32:21;;;;;;;2.93;1.90;;;14.80;99.90;;;;;;5010144;28;20231;-68
2022/08/30 03:34:47;;;;;;;3.00;1.90;;;14.80;99.90;;;;;;5011161;28;20200;-68
2022/08/30 03:37:14;;;;;;;3.07;2.10;;;14.70;99.90;;;;;;5008067;28;20207;-68
2022/08/30 03:39:44;;;;;;;4.37;2.47;;;14.70;99.90;;;;;;5014618;28;20210;-69
2022/08/30 03:42:12;;;;;;;4.20;2.00;;;14.60;99.90;;;;;;5009739;28;20212;-69
2022/08/30 03:44:38;;;;;;;3.13;2.07;;;14.70;99.90;;;;;;5017365;28;20231;-69
2022/08/30 03:47:07;;;;;;;2.60;1.80;;;14.70;99.90;;;;;;5015851;28;21032;-68
2022/08/30 03:49:34;;;;;;;3.73;2.30;;;14.70;99.90;;;;;;5015240;28;20202;-69
2022/08/30 03:52:00;;;;;;;7.57;2.10;;;14.70;99.90;;;;;;5017386;28;20215;-69
2022/08/30 03:54:27;;;;;;;3.30;2.17;;;14.70;99.90;;;;;;5024747;28;20206;-69
2022/08/30 03:56:55;;;;;;;3.53;2.03;;;14.70;99.90;;;;;;5005774;28;20210;-69
2022/08/30 03:59:21;;;;;;;5.70;2.70;;;14.70;99.90;;;;;;5019257;28;20199;-69
2022/08/30 04:01:48;;;;;;;6.40;2.67;;;14.70;99.90;;;;;;5012630;28;20743;-69
2022/08/30 04:04:15;;;;;;;6.27;2.70;;;14.80;99.90;;;;;;5021938;28;20636;-69
2022/08/30 04:06:47;;;;;;;3.60;2.40;;;14.80;99.90;;;;;;5021789;28;20655;-68
2022/08/30 04:09:13;;;;;;;3.70;2.47;;;14.70;99.90;;;;;;5016892;28;20496;-68
2022/08/30 04:11:40;;;;;;;5.80;2.47;;;14.60;99.90;;;;;;5019687;28;20223;-69
2022/08/30 04:14:07;;;;;;;5.10;2.80;;;14.60;99.90;;;;;;5010871;28;20210;-70
2022/08/30 04:16:33;;;;;;;5.50;2.50;;;14.60;99.90;;;;;;5018842;28;20680;-70
2022/08/30 04:19:00;;;;;;;6.73;3.00;;;14.50;99.90;;;;;;5008557;28;21294;-71
2022/08/30 04:21:27;;;;;;;4.10;2.50;;;14.50;99.90;;;;;;5020032;28;20249;-70
2022/08/30 04:23:53;;;;;;;4.47;2.50;;;14.50;99.90;;;;;;5008406;28;20227;-69
2022/08/30 04:26:20;;;;;;;5.63;2.50;;;14.50;99.90;;;;;;5014302;28;20196;-70
2022/08/30 04:28:47;;;;;;;4.13;2.90;;;14.50;99.90;;;;;;5014185;28;20656;-70
2022/08/30 04:31:16;;;;;;;5.67;3.17;;;14.40;99.90;;;;;;5013575;28;20198;-70
2022/08/30 04:33:43;;;;;;;6.63;3.00;;;14.50;99.90;;;;;;5022348;28;20215;-72
2022/08/30 04:36:10;;;;;;;4.53;2.90;;;14.60;99.90;;;;;;5016122;28;20573;-71
2022/08/30 04:38:38;;;;;;;5.17;2.67;;;14.70;99.90;;;;;;5016828;28;20211;-71
2022/08/30 04:41:10;;;;;;;6.57;2.97;;;14.70;99.90;;;;;;5013035;28;20191;-71
2022/08/30 04:43:38;;;;;;;8.97;3.30;;;14.80;99.90;;;;;;5022505;28;20219;-70
2022/08/30 04:46:07;;;;;;;7.00;3.03;;;14.70;99.90;;;;;;5016689;28;20191;-71
2022/08/30 04:48:34;;;;;;;3.97;2.90;;;14.60;99.90;;;;;;5027718;28;20202;-71
2022/08/30 04:51:06;;;;;;;8.63;3.20;;;14.60;99.90;;;;;;5018457;28;20214;-71
2022/08/30 04:53:33;;;;;;;6.77;3.30;;;14.50;99.90;;;;;;5030746;28;20195;-71
2022/08/30 04:56:00;;;;;;;3.80;2.80;;;14.70;99.90;;;;;;5022574;28;20210;-71
2022/08/30 04:58:27;;;;;;;5.83;3.20;;;14.80;99.90;;;;;;5023026;28;20202;-69
2022/08/30 05:00:53;;;;;;;4.47;2.87;;;14.80;99.90;;;;;;5017047;28;20202;-71
2022/08/30 05:03:20;;;;;;;6.10;3.23;;;14.80;99.90;;;;;;5024250;28;20231;-71
2022/08/30 05:05:50;;;;;;;6.33;3.50;;;14.90;99.90;;;;;;5014111;28;20220;-71
2022/08/30 05:08:20;;;;;;;8.20;3.43;;;14.90;99.90;;;;;;5022698;28;20202;-71
2022/08/30 05:10:51;;;;;;;8.03;3.60;;;14.90;99.90;;;;;;5020011;28;20778;-71
2022/08/30 05:13:20;;;;;;;6.60;3.50;;;14.90;99.90;;;;;;5020118;28;20637;-70
2022/08/30 05:16:01;;;;;;;6.93;3.30;;;14.90;99.90;;;;;;5024343;28;20264;-71
2022/08/30 05:18:28;;;;;;;6.07;3.60;;;15.00;99.90;;;;;;5015078;28;20209;-71
2022/08/30 05:21:12;;;;;;;5.80;3.27;;;15.00;99.90;;;;;;5023599;28;20195;-71
2022/08/30 05:23:40;;;;;;;6.37;3.50;;;15.00;99.90;;;;;;5018544;28;20203;-71
2022/08/30 05:26:12;;;;;;;7.60;3.93;;;15.00;99.90;;;;;;5015968;28;20210;-71
2022/08/30 05:28:39;;;;;;;6.63;3.67;;;15.00;99.90;;;;;;5014783;28;20209;-68
2022/08/30 05:31:30;;;;;;;5.93;3.50;;;15.10;99.90;;;;;;5014515;28;20201;-68
2022/08/30 05:33:58;;;;;;;4.83;3.40;;;15.20;99.90;;;;;;5016554;28;20203;-69
2022/08/30 05:36:27;;;;;;;6.53;3.73;;;15.30;99.90;;;;;;5013641;28;20192;-68
2022/08/30 05:38:55;;;;;;;5.73;4.23;;;15.40;99.90;;;;;;5021703;28;20208;-68
2022/08/30 05:41:23;;;;;;;10.23;4.50;;;15.60;99.90;;;;;;5024073;28;20218;-67
2022/08/30 05:43:54;;;;;;;10.53;4.60;;;15.80;99.90;;;;;;5017493;28;20193;-67
2022/08/30 05:46:21;;;;;;;8.13;4.77;;;15.90;99.90;;;;;;5017929;28;20203;-67
2022/08/30 05:48:48;;;;;;;9.20;5.30;;;16.00;99.90;;;;;;5025416;28;20199;-68
2022/08/30 05:51:22;;;;;;;8.17;4.67;;;16.20;99.90;;;;;;5023726;28;20198;-67
2022/08/30 05:53:50;;;;;;;9.10;4.40;;;16.20;99.90;;;;;;5013904;28;20196;-67
2022/08/30 05:56:20;;;;;;;7.87;4.90;;;16.20;99.90;;;;;;5022200;28;20211;-67
2022/08/30 05:58:50;;;;;;;7.57;3.90;;;16.40;99.90;;;;;;5022123;28;20231;-67
2022/08/30 06:01:30;;;;;;;10.27;4.20;;;16.50;99.90;;;;;;5026208;28;20605;-67
2022/08/30 06:03:59;;;;;;;8.63;4.47;;;16.60;99.90;;;;;;5013159;28;20672;-68
2022/08/30 06:06:33;;;;;;;7.27;4.23;;;16.60;99.90;;;;;;5015796;28;20258;-67
2022/08/30 06:09:00;;;;;;;7.43;3.80;;;16.70;99.90;;;;;;5011948;28;20265;-67
2022/08/30 06:11:30;;;;;;;8.40;4.90;;;16.80;99.90;;;;;;5014431;28;20311;-67
2022/08/30 06:13:57;;;;;;;7.00;4.50;;;16.80;99.90;;;;;;5009878;28;20192;-67
2022/08/30 06:16:26;;;;;;;5.63;3.93;;;16.90;99.90;;;;;;5013624;28;20652;-67
2022/08/30 06:18:54;;;;;;;6.00;3.90;;;17.10;99.90;;;;;;5026125;28;20196;-67
2022/08/30 06:21:24;;;;;;;8.67;3.87;;;17.30;99.90;;;;;;5023182;28;20218;-67
2022/08/30 06:23:51;;;;;;;6.90;4.20;;;17.30;99.90;;;;;;5025884;28;20195;-67
2022/08/30 06:26:18;;;;;;;6.90;3.90;;;17.50;99.90;;;;;;5014393;28;20216;-67
2022/08/30 06:28:45;;;;;;;8.27;3.80;;;17.60;99.90;;;;;;5022721;28;20196;-67
2022/08/30 06:31:14;;;;;;;8.10;3.90;;;17.80;99.90;;;;;;5014391;28;20204;-67
2022/08/30 06:33:42;;;;;;;9.13;3.57;;;18.00;99.90;;;;;;5022785;28;20602;-67
2022/08/30 06:36:12;;;;;;;7.47;3.47;;;18.30;99.90;;;;;;5020081;28;20196;-67
2022/08/30 06:38:40;;;;;;;6.80;2.97;;;18.40;99.90;;;;;;5021829;28;20214;-67
2022/08/30 06:41:08;;;;;;;8.53;3.70;;;18.60;99.90;;;;;;5026384;28;20688;-67
2022/08/30 06:43:36;;;;;;;8.97;3.80;;;18.70;99.90;;;;;;5026738;28;20209;-67
2022/08/30 06:46:04;;;;;;;10.60;3.37;;;18.80;99.90;;;;;;5008204;28;20219;-67
2022/08/30 06:48:31;;;;;;;6.27;3.60;;;18.80;99.90;;;;;;5023608;28;20200;-67
2022/08/30 06:50:58;;;;;;;11.90;3.60;;;19.00;99.90;;;;;;5021554;28;20210;-67
2022/08/30 06:53:28;;;;;;;5.97;3.30;;;19.10;99.90;;;;;;5008179;28;20220;-68
2022/08/30 06:56:06;;;;;;;15.63;3.87;;;19.30;99.90;;;;;;5024313;28;20632;-67
2022/08/30 06:58:34;;;;;;;9.27;3.60;;;19.50;99.90;;;;;;5026791;28;20199;-67
2022/08/30 07:01:01;;;;;;;8.60;3.87;;;19.70;99.90;;;;;;5022183;28;20196;-67
2022/08/30 07:03:28;;;;;;;7.10;3.83;;;19.80;99.90;;;;;;5024302;28;20394;-67
2022/08/30 07:05:56;;;;;;;9.53;4.17;;;19.90;99.90;;;;;;5013652;28;20227;-67
2022/08/30 07:08:24;;;;;;;12.23;4.13;;;20.10;99.90;;;;;;5022527;28;20635;-68
2022/08/30 07:10:53;;;;;;;10.00;4.13;;;20.50;99.90;;;;;;5023491;28;20192;-67
2022/08/30 07:13:22;;;;;;;9.83;3.70;;;20.80;99.90;;;;;;5024326;28;20304;-65
2022/08/30 07:15:50;;;;;;;8.45;3.90;;;21.10;99.90;;;;;;5021770;28;20202;-65
2022/08/30 07:21:11;;;;;;;8.68;2.72;;;22.00;99.90;;;;;;5022099;28;20238;-65
2022/08/30 07:23:37;;;;;;;10.82;2.83;;;22.60;99.90;;;;;;5024449;28;20572;-66
2022/08/30 07:26:11;;;;;;;15.35;3.13;;;22.90;99.90;;;;;;5023076;28;20219;-65
2022/08/30 07:28:40;;;;;;;16.08;2.72;;;23.10;99.90;;;;;;5021167;28;20692;-66
2022/08/30 07:31:08;;;;;;;11.38;3.30;;;23.10;99.90;;;;;;5023458;28;20192;-66
2022/08/30 07:33:35;;;;;;;10.75;2.95;;;23.20;99.90;;;;;;5023687;28;20698;-66
2022/08/30 07:36:03;;;;;;;8.25;2.90;;;23.30;99.90;;;;;;5018713;28;20223;-65
2022/08/30 07:38:30;;;;;;;7.50;2.70;;;23.40;99.90;;;;;;5023415;28;20605;-65
2022/08/30 07:40:59;;;;;;;5.20;2.88;;;23.60;99.90;;;;;;5021150;28;20200;-65
2022/08/30 07:43:27;;;;;;;5.93;2.53;;;23.70;99.90;;;;;;5025627;28;20668;-65
2022/08/30 07:45:56;;;;;;;10.75;2.90;;;23.90;99.90;;;;;;5012268;28;20392;-65
2022/08/30 07:48:23;;;;;;;4.95;2.38;;;23.90;99.90;;;;;;5015972;28;20196;-65
2022/08/30 07:50:50;;;;;;;5.28;2.55;;;24.00;99.90;;;;;;5007494;28;20200;-65
2022/08/30 07:53:23;;;;;;;6.03;2.30;;;24.20;99.90;;;;;;5013842;28;20714;-65
2022/08/30 07:55:50;;;;;;;5.10;2.10;;;24.20;99.90;;;;;;5018645;28;20215;-64
2022/08/30 07:58:16;;;;;;;4.63;2.55;;;24.40;99.90;;;;;;5012285;28;20199;-65
2022/08/30 08:00:44;;;;;;;4.57;2.35;;;24.50;99.90;;;;;;5017603;28;20573;-65
2022/08/30 08:03:11;;;;;;;7.57;2.33;;;24.60;99.90;;;;;;5004446;28;20234;-64
2022/08/30 08:05:39;;;;;;;6.35;2.60;;;24.60;99.90;;;;;;5014620;28;20223;-65
2022/08/30 08:08:07;;;;;;;5.47;2.10;;;24.60;99.90;;;;;;5011873;28;20199;-65
2022/08/30 08:10:37;;;;;;;4.32;2.28;;;24.50;99.90;;;;;;5010830;28;20262;-67
2022/08/30 08:13:04;;;;;;;6.20;1.90;;;24.40;99.90;;;;;;5019152;28;20212;-65
2022/08/30 08:15:31;;;;;;;6.97;2.20;;;24.40;99.90;;;;;;5021482;28;20203;-65
2022/08/30 08:17:58;;;;;;;6.88;2.45;;;24.20;99.90;;;;;;5021595;28;20207;-64
2022/08/30 08:20:25;;;;;;;9.52;2.28;;;24.10;99.90;;;;;;5007695;28;20207;-65
2022/08/30 08:22:52;;;;;;;5.20;2.28;;;24.20;99.90;;;;;;5019315;28;20219;-64
2022/08/30 08:25:19;;;;;;;5.43;2.50;;;24.30;99.90;;;;;;5014928;28;20346;-64
2022/08/30 08:27:47;;;;;;;7.13;2.22;;;24.30;99.90;;;;;;5008590;28;20218;-65
2022/08/30 08:30:14;;;;;;;7.18;2.78;;;24.40;99.90;;;;;;5011803;28;20200;-65
2022/08/30 08:32:41;;;;;;;7.88;2.88;;;24.60;99.90;;;;;;5011822;28;20223;-64
2022/08/30 08:35:10;;;;;;;9.20;2.35;;;24.80;99.90;;;;;;5007257;28;20664;-65
2022/08/30 08:37:38;;;;;;;6.68;2.65;;;24.90;99.90;;;;;;5022189;28;20213;-65
2022/08/30 08:40:06;;;;;;;6.68;2.15;;;25.00;99.90;;;;;;5019344;28;20196;-65
2022/08/30 08:42:47;;;;;;;6.82;2.17;;;25.10;99.90;;;;;;5015431;28;20713;-65
2022/08/30 08:45:22;;;;;;;5.95;2.88;;;25.20;99.90;;;;;;5009368;28;20246;-65
2022/08/30 08:48:19;;;;;;;5.18;2.47;;;25.30;99.90;;;;;;5012560;28;20434;-65
2022/08/30 08:53:34;;;;;;;6.40;2.20;;;25.40;99.90;;;;;;5011029;28;20207;-65
2022/08/30 08:56:18;;;;;;;6.15;2.30;;;25.30;99.90;;;;;;5010330;28;20606;-65
2022/08/30 08:58:46;;;;;;;4.22;2.15;;;25.20;99.90;;;;;;5010504;28;20196;-65
2022/08/30 09:01:15;;;;;;;6.97;2.67;;;25.40;99.90;;;;;;5010136;28;20219;-65
2022/08/30 09:03:44;;;;;;;4.75;2.47;;;25.40;99.90;;;;;;5014832;28;20277;-67
2022/08/30 09:06:19;;;;;;;6.63;2.47;;;25.40;99.90;;;;;;5014338;28;20216;-67
2022/08/30 09:08:45;;;;;;;6.47;2.17;;;25.50;99.90;;;;;;5018598;28;20656;-67
2022/08/30 09:11:21;;;;;;;10.77;2.25;;;25.50;99.90;;;;;;5010997;28;20192;-65
2022/08/30 09:13:53;;;;;;;6.07;2.40;;;25.70;99.90;;;;;;5014329;28;20218;-66
2022/08/30 09:16:44;;;;;;;9.90;2.58;;;25.80;99.90;;;;;;5014975;28;20191;-66
2022/08/30 09:19:25;;;;;;;4.88;2.17;;;26.10;99.90;;;;;;5015607;28;20196;-66
2022/08/30 09:22:10;;;;;;;11.63;3.28;;;26.20;99.90;;;;;;5014056;28;20642;-65
2022/08/30 09:24:47;;;;;;;4.53;2.38;;;26.30;99.90;;;;;;5012895;28;20196;-65
2022/08/30 09:27:35;;;;;;;10.20;3.17;;;26.30;99.90;;;;;;5012921;28;20192;-65
2022/08/30 09:30:08;;;;;;;6.13;2.75;;;26.40;99.90;;;;;;5015674;28;20563;-66
2022/08/30 09:32:52;;;;;;;3.70;2.55;;;26.40;99.90;;;;;;5019793;28;20211;-67
2022/08/30 09:35:35;;;;;;;6.20;2.40;;;26.40;99.90;;;;;;5017628;28;20191;-65
2022/08/30 09:38:15;;;;;;;4.95;2.40;;;26.60;99.90;;;;;;5017658;28;20207;-65
2022/08/30 09:40:45;;;;;;;5.72;1.92;;;26.70;99.90;;;;;;5019492;28;20365;-65
2022/08/30 09:43:15;;;;;;;4.03;2.40;;;27.00;99.90;;;;;;5013420;28;20216;-67
2022/08/30 09:45:59;;;;;;;5.97;2.22;;;27.10;99.90;;;;;;5017162;28;20222;-68
2022/08/30 09:48:36;;;;;;;6.82;2.70;;;27.10;99.90;;;;;;5018409;28;20745;-68
2022/08/30 09:51:25;;;;;;;4.82;2.03;;;27.30;99.90;;;;;;5021515;28;20200;-68
2022/08/30 09:54:22;;;;;;;6.03;2.05;;;27.40;99.90;;;;;;5019689;28;20266;-68
2022/08/30 09:57:08;;;;;;;3.22;2.10;;;27.20;99.90;;;;;;5015338;28;20207;-66
2022/08/30 10:00:03;;;;;;;3.50;2.15;;;27.20;99.60;;;;;;5021450;28;20587;-68
2022/08/30 10:02:47;;;;;;;9.68;2.25;;;27.30;99.50;;;;;;5016449;28;20245;-68
2022/08/30 10:05:41;;;;;;;3.70;2.20;;;27.40;98.80;;;;;;5012524;28;20577;-67
2022/08/30 10:08:36;;;;;;;5.65;2.60;;;27.40;98.30;;;;;;5019219;28;20619;-67
2022/08/30 10:11:19;;;;;;;4.38;2.10;;;27.40;98.70;;;;;;5019023;28;20283;-68
2022/08/30 10:14:16;;;;;;;4.53;2.10;;;27.30;98.80;;;;;;5009716;28;20727;-66
2022/08/30 10:16:55;;;;;;;4.47;2.45;;;27.20;98.50;;;;;;5011688;28;20200;-66
2022/08/30 10:19:46;;;;;;;6.13;2.08;;;27.20;98.80;;;;;;5023085;28;20547;-67
2022/08/30 10:22:29;;;;;;;9.10;2.50;;;27.30;98.90;;;;;;5009750;28;20274;-67
2022/08/30 10:25:21;;;;;;;6.82;1.95;;;27.50;98.20;;;;;;5021000;28;20601;-68
2022/08/30 10:27:55;;;;;;;5.63;2.50;;;27.80;97.80;;;;;;5007100;28;20556;-67
2022/08/30 10:30:22;;;;;;;4.35;2.30;;;27.80;97.70;;;;;;5010348;28;20208;-67
2022/08/30 10:32:56;;;;;;;3.42;2.05;;;27.90;97.60;;;;;;5010105;28;20295;-68
2022/08/30 10:35:31;;;;;;;6.45;2.10;;;28.00;97.60;;;;;;5011530;28;20192;-68
2022/08/30 10:38:17;;;;;;;9.30;3.00;;;28.20;97.50;;;;;;5008968;28;20203;-67
2022/08/30 10:41:35;;;;;;;8.18;2.65;;;28.40;96.90;;;;;;5009759;28;20200;-67
2022/08/30 10:43:48;;;;;;;6.00;2.55;;;28.40;96.10;;;;;;5008653;28;20204;-67
2022/08/30 10:46:38;;;;;;;6.88;2.20;;;28.00;96.30;;;;;;5014506;28;20229;-68
2022/08/30 10:49:14;;;;;;;6.28;2.33;;;27.90;97.10;;;;;;5010453;28;20211;-67
2022/08/30 10:51:51;;;;;;;6.70;2.40;;;28.00;96.40;;;;;;5015314;28;20594;-67
2022/08/30 10:54:36;;;;;;;5.05;2.47;;;28.00;96.40;;;;;;5013926;28;20227;-68
2022/08/30 10:57:03;;;;;;;4.95;2.47;;;28.10;96.30;;;;;;5012560;28;20211;-67
2022/08/30 10:59:30;;;;;;;2.97;2.05;;;28.20;96.00;;;;;;5013209;28;20198;-67
2022/08/30 11:02:29;;;;;;;3.80;2.28;;;28.10;95.70;;;;;;5013008;28;20509;-67
2022/08/30 11:05:11;;;;;;;3.78;2.20;;;28.00;96.20;;;;;;5007176;28;20215;-67
2022/08/30 11:07:46;;;;;;;4.35;2.03;;;28.20;95.90;;;;;;5011894;28;20203;-68
2022/08/30 11:10:13;;;;;;;2.78;2.13;;;28.50;95.50;;;;;;5007860;28;20283;-67
2022/08/30 11:13:01;;;;;;;4.93;2.25;;;28.70;95.20;;;;;;5010952;28;20216;-67
2022/08/30 11:15:34;;;;;;;3.22;2.33;;;28.90;94.50;;;;;;5008271;28;20200;-68
2022/08/30 11:18:08;;;;;;;2.33;1.73;;;28.90;94.00;;;;;;5014756;28;20188;-67
2022/08/30 11:20:52;;;;;;;4.45;2.63;;;28.90;94.50;;;;;;5015793;28;20192;-68
2022/08/30 11:23:33;;;;;;;3.63;2.28;;;29.10;95.00;;;;;;5016320;28;20451;-68
2022/08/30 11:26:10;;;;;;;5.70;2.45;;;29.10;93.90;;;;;;5014132;28;20236;-68
2022/08/30 11:28:46;;;;;;;4.28;2.20;;;29.20;94.00;;;;;;5011769;28;20685;-68
2022/08/30 11:31:22;;;;;;;5.88;2.60;;;29.30;94.30;;;;;;5009417;28;20192;-67
2022/08/30 11:34:09;;;;;;;7.97;2.70;;;29.30;94.50;;;;;;5011879;28;20203;-68
2022/08/30 11:37:01;;;;;;;4.47;2.47;;;29.10;94.30;;;;;;5013104;28;20203;-67
2022/08/30 11:39:41;;;;;;;3.15;2.40;;;29.30;94.90;;;;;;5013390;28;20731;-67
2022/08/30 11:42:41;;;;;;;8.02;2.80;;;29.40;94.40;;;;;;5014920;28;20333;-68
2022/08/30 11:45:22;;;;;;;4.75;3.03;;;29.50;94.40;;;;;;5009848;28;21926;-68
2022/08/30 11:47:53;;;;;;;5.15;2.13;;;29.70;93.50;;;;;;5008929;28;20611;-68
2022/08/30 11:50:44;;;;;;;4.68;2.50;;;29.90;93.40;;;;;;5012856;28;20210;-67
2022/08/30 11:53:41;;;;;;;4.47;2.20;;;29.70;93.80;;;;;;5012968;28;20707;-67
2022/08/30 11:56:35;;;;;;;3.70;2.13;;;29.80;94.00;;;;;;5019156;28;20196;-68
2022/08/30 11:59:32;;;;;;;7.10;2.90;;;30.00;93.60;;;;;;5011399;28;20200;-67
2022/08/30 12:02:00;;;;;;;2.90;2.30;;;29.90;93.40;;;;;;5009018;28;20774;-67
2022/08/30 12:04:36;;;;;;;5.30;2.50;;;29.70;93.40;;;;;;5014840;28;20203;-67
2022/08/30 12:07:07;;;;;;;4.05;2.50;;;29.70;93.30;;;;;;5007836;28;20215;-67
2022/08/30 12:09:34;;;;;;;4.65;2.58;;;29.70;92.90;;;;;;5007700;28;20200;-67
2022/08/30 12:12:11;;;;;;;4.38;2.38;;;29.90;93.20;;;;;;5016189;28;20212;-68
2022/08/30 12:14:51;;;;;;;4.68;2.03;;;30.00;92.80;;;;;;5016994;28;20735;-68
2022/08/30 12:20:27;;;;;;;6.13;2.70;;;29.90;93.40;;;;;;5013710;28;20632;-68
2022/08/30 12:22:55;;;;;;;5.35;2.50;;;30.10;93.00;;;;;;5008640;28;20243;-68
2022/08/30 12:25:30;;;;;;;5.78;2.60;;;30.30;92.70;;;;;;5042254;28;20302;-68
2022/08/30 12:28:22;;;;;;;4.43;2.50;;;30.40;92.80;;;;;;5023780;28;20267;-68
2022/08/30 12:30:50;;;;;;;3.45;2.45;;;30.50;92.80;;;;;;5015775;28;20199;-68
2022/08/30 12:33:27;;;;;;;5.35;2.67;;;30.70;92.50;;;;;;5021046;28;20208;-68
2022/08/30 12:35:58;;;;;;;3.72;2.40;;;30.80;92.50;;;;;;5021141;28;20224;-67
2022/08/30 12:38:25;;;;;;;3.28;2.58;;;30.70;92.00;;;;;;5014470;28;20674;-67
2022/08/30 12:40:57;;;;;;;2.97;2.30;;;30.60;92.20;;;;;;5006878;28;20517;-67
2022/08/30 12:43:34;;;;;;;3.30;2.13;;;30.50;92.50;;;;;;5022671;28;20219;-67
2022/08/30 12:46:11;;;;;;;4.38;2.60;;;30.60;92.10;;;;;;5010691;28;20306;-67
2022/08/30 12:48:39;;;;;;;4.57;3.22;;;30.90;91.70;;;;;;5023760;28;20253;-67
2022/08/30 12:51:09;;;;;;;3.63;2.40;;;31.00;91.90;;;;;;5017382;28;20218;-68
2022/08/30 12:53:44;;;;;;;5.05;2.38;;;31.10;91.60;;;;;;5021353;28;20199;-68
2022/08/30 12:56:15;;;;;;;3.25;2.20;;;31.30;91.40;;;;;;5013235;28;20192;-67
2022/08/30 12:58:56;;;;;;;5.35;2.30;;;31.30;91.40;;;;;;5014944;28;20696;-68
2022/08/30 13:01:31;;;;;;;3.15;2.30;;;31.40;91.30;;;;;;5014173;28;20215;-68
2022/08/30 13:04:12;;;;;;;6.38;2.42;;;31.40;91.60;;;;;;5018559;28;20203;-68
2022/08/30 13:06:44;;;;;;;5.80;2.25;;;31.40;91.00;;;;;;5018665;28;20310;-67
2022/08/30 13:09:41;;;;;;;4.88;2.47;;;31.60;90.90;;;;;;5019207;28;20196;-67
2022/08/30 13:12:20;;;;;;;3.83;2.58;;;31.70;90.60;;;;;;5012181;28;20208;-68
2022/08/30 13:14:48;;;;;;;3.00;2.10;;;31.90;90.50;;;;;;5017056;28;20191;-67
2022/08/30 13:17:17;;;;;;;2.88;2.13;;;31.90;90.30;;;;;;5016472;28;20626;-67